createdAt,value
2019-05-22T00:00:41.160Z,101194.14
2019-05-22T00:03:12.727Z,101196.55
2019-05-22T00:05:44.959Z,101200.64
2019-05-22T00:08:17.539Z,101198.12
2019-05-22T00:10:49.517Z,101201.01
2019-05-22T00:13:22.782Z,101204.38
2019-05-22T00:15:54.765Z,101199.20
2019-05-22T00:18:25.704Z,101207.27
2019-05-22T00:20:57.550Z,101207.78
2019-05-22T00:23:28.514Z,101212.13
2019-05-22T00:25:58.481Z,101212.13
2019-05-22T00:28:30.381Z,101216.45
2019-05-22T00:31:01.352Z,101212.84
2019-05-22T00:33:34.475Z,101213.56
2019-05-22T00:36:04.660Z,101210.64
2019-05-22T00:38:36.184Z,101204.50
2019-05-22T00:41:07.631Z,101209.31
2019-05-22T00:43:42.390Z,101211.00
2019-05-22T00:46:16.853Z,101214.00
2019-05-22T00:48:47.764Z,101216.77
2019-05-22T00:51:47.520Z,101218.09
2019-05-22T00:54:34.834Z,101222.07
2019-05-22T00:57:34.868Z,101217.49
2019-05-22T01:00:21.565Z,101207.38
2019-05-22T01:02:54.348Z,101205.81
2019-05-22T01:05:24.693Z,101214.84
2019-05-22T01:07:56.782Z,101219.06
2019-05-22T01:10:29.581Z,101225.72
2019-05-22T01:13:02.918Z,101224.39
2019-05-22T01:15:35.064Z,101233.66
2019-05-22T01:18:08.311Z,101232.34
2019-05-22T01:20:42.004Z,101237.99
2019-05-22T01:23:17.929Z,101235.70
2019-05-22T01:25:48.203Z,101239.88
2019-05-22T01:28:19.603Z,101241.00
2019-05-22T01:31:00.808Z,101239.20
2019-05-22T01:33:39.245Z,101238.23
2019-05-22T01:36:30.140Z,101237.39
2019-05-22T01:39:25.974Z,101243.41
2019-05-22T01:42:00.776Z,101245.58
2019-05-22T01:44:31.700Z,101244.48
2019-05-22T01:47:06.887Z,101249.78
2019-05-22T01:49:43.162Z,101252.43
2019-05-22T01:52:13.295Z,101248.58
2019-05-22T01:54:45.247Z,101247.26
2019-05-22T01:57:18.058Z,101253.52
2019-05-22T01:59:48.318Z,101255.92
2019-05-22T02:02:19.207Z,101255.83
2019-05-22T02:04:49.157Z,101255.83
2019-05-22T02:07:20.693Z,101256.19
2019-05-22T02:09:52.263Z,101259.55
2019-05-22T02:12:41.120Z,101262.95
2019-05-22T02:15:12.759Z,101260.30
2019-05-22T02:17:44.751Z,101257.53
2019-05-22T02:20:16.142Z,101257.05
2019-05-22T02:22:48.155Z,101261.86
2019-05-22T02:25:18.986Z,101259.33
2019-05-22T02:27:50.519Z,101262.09
2019-05-22T02:30:23.185Z,101266.19
2019-05-22T02:32:55.199Z,101263.78
2019-05-22T02:35:24.719Z,101274.72
2019-05-22T02:37:55.631Z,101270.98
2019-05-22T02:40:27.150Z,101271.00
2019-05-22T02:42:56.214Z,101275.80
2019-05-22T02:45:25.350Z,101276.53
2019-05-22T02:47:55.726Z,101275.33
2019-05-22T02:50:25.641Z,101281.45
2019-05-22T02:52:55.447Z,101280.98
2019-05-22T02:55:27.391Z,101276.53
2019-05-22T02:57:57.555Z,101286.03
2019-05-22T03:00:31.116Z,101280.87
2019-05-22T03:03:03.071Z,101287.38
2019-05-22T03:05:33.592Z,101289.87
2019-05-22T03:08:04.145Z,101291.44
2019-05-22T03:10:34.572Z,101289.63
2019-05-22T03:13:06.201Z,101305.53
2019-05-22T03:15:36.563Z,101303.58
2019-05-22T03:18:08.591Z,101294.93
2019-05-22T03:20:42.000Z,101302.25
2019-05-22T03:23:39.049Z,101299.48
2019-05-22T03:26:10.961Z,101303.44
2019-05-22T03:28:41.907Z,101297.20
2019-05-22T03:31:13.637Z,101299.48
2019-05-22T03:33:44.204Z,101306.09
2019-05-22T03:36:20.820Z,101311.86
2019-05-22T03:38:51.713Z,101309.83
2019-05-22T03:41:21.626Z,101319.81
2019-05-22T03:43:53.270Z,101312.36
2019-05-22T03:46:37.056Z,101313.31
2019-05-22T03:49:07.946Z,101319.67
2019-05-22T03:51:37.250Z,101322.44
2019-05-22T03:54:06.464Z,101316.05
2019-05-22T03:56:54.328Z,101312.56
2019-05-22T03:59:23.160Z,101311.72
2019-05-22T04:01:52.390Z,101318.84
2019-05-22T04:04:40.332Z,101315.47
2019-05-22T04:07:13.904Z,101320.25
2019-05-22T04:09:42.745Z,101329.51
2019-05-22T04:12:13.161Z,101326.86
2019-05-22T04:14:42.269Z,101322.17
2019-05-22T04:17:13.255Z,101333.70
2019-05-22T04:19:49.226Z,101335.39
2019-05-22T04:22:14.144Z,101342.95
2019-05-22T04:24:44.396Z,101344.05
2019-05-22T04:27:13.717Z,101344.67
2019-05-22T04:29:42.693Z,101353.08
2019-05-22T04:32:22.742Z,101350.44
2019-05-22T04:34:53.026Z,101354.77
2019-05-22T04:37:22.455Z,101363.55
2019-05-22T04:39:54.863Z,101361.97
2019-05-22T04:42:27.036Z,101366.30
2019-05-22T04:45:09.966Z,101366.30
2019-05-22T04:47:39.913Z,101361.97
2019-05-22T04:50:10.341Z,101363.43
2019-05-22T04:52:39.542Z,101366.08
2019-05-22T04:55:11.184Z,101366.08
2019-05-22T04:57:41.033Z,101369.68
2019-05-22T05:00:11.515Z,101363.18
2019-05-22T05:02:40.577Z,101364.02
2019-05-22T05:05:11.658Z,101367.84
2019-05-22T05:07:41.681Z,101370.86
2019-05-22T05:10:10.724Z,101373.87
2019-05-22T05:12:41.677Z,101375.08
2019-05-22T05:15:11.124Z,101372.32
2019-05-22T05:17:40.025Z,101381.95
2019-05-22T05:20:21.713Z,101385.66
2019-05-22T05:22:41.833Z,101382.64
2019-05-22T05:25:11.745Z,101385.66
2019-05-22T05:27:40.781Z,101385.28
2019-05-22T05:30:10.626Z,101389.87
2019-05-22T05:32:40.455Z,101390.94
2019-05-22T05:35:10.317Z,101392.63
2019-05-22T05:37:39.549Z,101402.48
2019-05-22T05:40:28.888Z,101399.35
2019-05-22T05:42:58.225Z,101410.66
2019-05-22T05:45:27.395Z,101407.41
2019-05-22T05:47:57.166Z,101412.21
2019-05-22T05:50:39.014Z,101420.14
2019-05-22T05:52:58.098Z,101413.91
2019-05-22T05:55:30.138Z,101413.64
2019-05-22T05:58:27.552Z,101407.63
2019-05-22T06:00:59.717Z,101423.52
2019-05-22T06:03:29.650Z,101427.01
2019-05-22T06:05:58.878Z,101430.02
2019-05-22T06:08:27.741Z,101430.50
2019-05-22T06:11:14.726Z,101426.42
2019-05-22T06:13:43.590Z,101426.78
2019-05-22T06:16:32.733Z,101433.73
2019-05-22T06:19:01.799Z,101439.86
2019-05-22T06:21:32.111Z,101447.43
2019-05-22T06:24:21.030Z,101442.73
2019-05-22T06:27:25.158Z,101439.98
2019-05-22T06:29:59.163Z,101444.67
2019-05-22T06:32:54.632Z,101452.61
2019-05-22T06:35:24.850Z,101456.69
2019-05-22T06:38:05.053Z,101447.32
2019-05-22T06:40:35.933Z,101456.47
2019-05-22T06:43:23.774Z,101454.52
2019-05-22T06:45:53.056Z,101452.87
2019-05-22T06:48:22.149Z,101454.33
2019-05-22T06:50:51.606Z,101453.97
2019-05-22T06:53:20.769Z,101455.29
2019-05-22T06:55:50.260Z,101459.63
2019-05-22T06:58:19.551Z,101459.63
2019-05-22T07:00:48.916Z,101458.08
2019-05-22T07:03:19.457Z,101457.86
2019-05-22T07:05:50.115Z,101462.78
2019-05-22T07:08:20.083Z,101466.97
2019-05-22T07:10:48.884Z,101463.39
2019-05-22T07:13:19.709Z,101466.55
2019-05-22T07:15:52.134Z,101465.70
2019-05-22T07:18:26.338Z,101463.67
2019-05-22T07:20:57.940Z,101469.81
2019-05-22T07:23:32.882Z,101474.37
2019-05-22T07:26:03.236Z,101466.80
2019-05-22T07:28:33.701Z,101468.03
2019-05-22T07:31:04.332Z,101467.19
2019-05-22T07:33:35.105Z,101471.30
2019-05-22T07:36:09.998Z,101471.20
2019-05-22T07:38:37.022Z,101476.48
2019-05-22T07:41:08.252Z,101470.48
2019-05-22T07:43:41.559Z,101471.58
2019-05-22T07:46:09.907Z,101472.52
2019-05-22T07:48:41.452Z,101476.27
2019-05-22T07:51:12.454Z,101469.53
2019-05-22T07:53:42.918Z,101475.19
2019-05-22T07:56:15.060Z,101473.88
2019-05-22T07:58:45.401Z,101477.26
2019-05-22T08:01:17.279Z,101477.72
2019-05-22T08:03:49.319Z,101479.30
2019-05-22T08:06:19.952Z,101478.70
2019-05-22T08:08:52.390Z,101478.22
2019-05-22T08:11:25.114Z,101475.33
2019-05-22T08:13:57.060Z,101479.07
2019-05-22T08:16:29.205Z,101484.73
2019-05-22T08:18:59.220Z,101484.85
2019-05-22T08:21:30.062Z,101479.78
2019-05-22T08:24:00.588Z,101487.97
2019-05-22T08:26:32.258Z,101485.19
2019-05-22T08:29:02.802Z,101491.56
2019-05-22T08:31:33.726Z,101489.66
2019-05-22T08:34:05.260Z,101491.82
2019-05-22T08:36:38.634Z,101490.38
2019-05-22T08:39:09.923Z,101492.17
2019-05-22T08:41:42.735Z,101494.59
2019-05-22T08:44:16.704Z,101496.29
2019-05-22T08:46:46.171Z,101492.81
2019-05-22T08:49:17.161Z,101493.06
2019-05-22T08:51:47.093Z,101495.81
2019-05-22T08:54:17.935Z,101498.83
2019-05-22T08:56:51.337Z,101497.50
2019-05-22T08:59:21.958Z,101497.63
2019-05-22T09:01:52.024Z,101488.96
2019-05-22T09:04:22.573Z,101497.27
2019-05-22T09:06:52.786Z,101500.53
2019-05-22T09:09:23.644Z,101497.73
2019-05-22T09:11:53.695Z,101501.47
2019-05-22T09:14:24.173Z,101504.00
2019-05-22T09:16:54.538Z,101499.52
2019-05-22T09:19:24.650Z,101497.59
2019-05-22T09:21:55.169Z,101504.34
2019-05-22T09:24:25.808Z,101504.34
2019-05-22T09:26:55.730Z,101503.26
2019-05-22T09:29:25.760Z,101504.10
2019-05-22T09:31:55.883Z,101505.55
2019-05-22T09:34:26.613Z,101499.84
2019-05-22T09:36:56.550Z,101500.57
2019-05-22T09:39:26.509Z,101500.05
2019-05-22T09:41:56.815Z,101502.58
2019-05-22T09:44:26.857Z,101504.39
2019-05-22T09:46:56.971Z,101510.30
2019-05-22T09:49:27.542Z,101514.84
2019-05-22T09:51:57.856Z,101509.29
2019-05-22T09:54:28.736Z,101516.88
2019-05-22T09:56:58.905Z,101512.41
2019-05-22T09:59:29.158Z,101513.38
2019-05-22T10:01:59.071Z,101510.00
2019-05-22T10:04:30.571Z,101512.30
2019-05-22T10:07:00.799Z,101514.83
2019-05-22T10:09:30.945Z,101517.96
2019-05-22T10:12:02.683Z,101512.73
2019-05-22T10:14:33.320Z,101518.16
2019-05-22T10:17:03.756Z,101520.69
2019-05-22T10:19:34.227Z,101517.19
2019-05-22T10:22:05.480Z,101514.29
2019-05-22T10:24:35.974Z,101516.09
2019-05-22T10:27:07.965Z,101517.64
2019-05-22T10:29:38.081Z,101524.99
2019-05-22T10:32:08.616Z,101517.87
2019-05-22T10:34:38.667Z,101520.88
2019-05-22T10:37:10.730Z,101522.13
2019-05-22T10:39:41.271Z,101522.80
2019-05-22T10:42:11.978Z,101523.85
2019-05-22T10:44:41.925Z,101520.25
2019-05-22T10:47:11.888Z,101520.33
2019-05-22T10:49:42.610Z,101524.16
2019-05-22T10:52:12.569Z,101516.78
2019-05-22T10:54:42.524Z,101508.09
2019-05-22T10:57:13.063Z,101504.64
2019-05-22T10:59:42.104Z,101512.85
2019-05-22T11:02:12.743Z,101508.81
2019-05-22T11:04:43.874Z,101498.44
2019-05-22T11:07:14.202Z,101503.07
2019-05-22T11:09:44.676Z,101500.47
2019-05-22T11:12:15.402Z,101502.85
2019-05-22T11:14:47.056Z,101503.53
2019-05-22T11:17:17.521Z,101512.72
2019-05-22T11:19:47.770Z,101521.45
2019-05-22T11:22:18.626Z,101511.62
2019-05-22T11:24:48.866Z,101503.22
2019-05-22T11:27:19.142Z,101515.09
2019-05-22T11:29:49.986Z,101491.37
2019-05-22T11:32:20.216Z,101494.39
2019-05-22T11:34:50.156Z,101492.13
2019-05-22T11:37:20.848Z,101498.92
2019-05-22T11:39:51.077Z,101489.15
2019-05-22T11:42:21.764Z,101492.71
2019-05-22T11:44:52.697Z,101482.44
2019-05-22T11:47:23.161Z,101482.04
2019-05-22T11:49:54.439Z,101485.50
2019-05-22T11:52:24.780Z,101485.55
2019-05-22T11:54:55.177Z,101481.63
2019-05-22T11:57:25.606Z,101482.28
2019-05-22T11:59:55.948Z,101479.38
2019-05-22T12:02:26.372Z,101486.48
2019-05-22T12:04:57.591Z,101485.20
2019-05-22T12:07:28.537Z,101481.22
2019-05-22T12:09:58.991Z,101479.10
2019-05-22T12:12:30.238Z,101481.33
2019-05-22T12:15:01.182Z,101477.37
2019-05-22T12:17:38.300Z,101482.81
2019-05-22T12:20:04.836Z,101476.47
2019-05-22T12:22:34.838Z,101475.49
2019-05-22T12:25:05.318Z,101475.67
2019-05-22T12:27:36.380Z,101491.60
2019-05-22T12:30:07.512Z,101483.41
2019-05-22T12:32:38.234Z,101487.28
2019-05-22T12:35:08.305Z,101473.38
2019-05-22T12:37:38.643Z,101486.94
2019-05-22T12:40:11.839Z,101483.27
2019-05-22T12:42:41.991Z,101476.89
2019-05-22T12:45:13.889Z,101479.91
2019-05-22T12:47:44.017Z,101476.57
2019-05-22T12:50:16.819Z,101477.27
2019-05-22T12:52:49.663Z,101472.57
2019-05-22T12:55:20.512Z,101469.53
2019-05-22T12:57:51.433Z,101461.30
2019-05-22T13:00:25.747Z,101464.44
2019-05-22T13:02:56.480Z,101453.03
2019-05-22T13:05:27.567Z,101465.23
2019-05-22T13:07:58.412Z,101449.95
2019-05-22T13:10:29.161Z,101447.80
2019-05-22T13:12:59.390Z,101446.25
2019-05-22T13:15:30.661Z,101443.23
2019-05-22T13:18:01.200Z,101441.77
2019-05-22T13:20:42.388Z,101454.14
2019-05-22T13:23:09.960Z,101443.88
2019-05-22T13:25:42.282Z,101449.57
2019-05-22T13:28:16.607Z,101443.37
2019-05-22T13:30:51.040Z,101446.84
2019-05-22T13:33:27.514Z,101442.46
2019-05-22T13:35:58.095Z,101445.83
2019-05-22T13:38:28.442Z,101445.23
2019-05-22T13:40:58.988Z,101439.86
2019-05-22T13:43:30.104Z,101439.12
2019-05-22T13:46:00.872Z,101444.13
2019-05-22T13:48:30.926Z,101434.23
2019-05-22T13:51:01.983Z,101429.63
2019-05-22T13:53:32.699Z,101456.57
2019-05-22T13:56:04.534Z,101422.31
2019-05-22T13:58:35.700Z,101432.31
2019-05-22T14:01:06.065Z,101431.17
2019-05-22T14:03:36.319Z,101430.23
2019-05-22T14:06:06.860Z,101427.38
2019-05-22T14:08:36.921Z,101421.78
2019-05-22T14:11:08.387Z,101419.23
2019-05-22T14:13:38.901Z,101414.55
2019-05-22T14:16:09.543Z,101420.80
2019-05-22T14:18:39.480Z,101411.61
2019-05-22T14:21:09.638Z,101412.63
2019-05-22T14:23:39.621Z,101406.53
2019-05-22T14:26:09.908Z,101411.69
2019-05-22T14:28:41.584Z,101413.94
2019-05-22T14:31:11.629Z,101414.08
2019-05-22T14:33:41.792Z,101411.31
2019-05-22T14:36:12.193Z,101413.48
2019-05-22T14:38:43.086Z,101420.92
2019-05-22T14:41:14.696Z,101419.20
2019-05-22T14:43:44.837Z,101415.08
2019-05-22T14:46:15.566Z,101422.52
2019-05-22T14:48:45.628Z,101422.61
2019-05-22T14:51:16.410Z,101423.81
2019-05-22T14:53:48.511Z,101419.98
2019-05-22T14:56:19.537Z,101426.31
2019-05-22T14:58:49.654Z,101420.14
2019-05-22T15:01:21.122Z,101418.97
2019-05-22T15:03:52.066Z,101404.38
2019-05-22T15:06:22.495Z,101408.93
2019-05-22T15:08:52.453Z,101406.41
2019-05-22T15:11:22.405Z,101403.87
2019-05-22T15:13:53.161Z,101402.56
2019-05-22T15:16:23.439Z,101404.34
2019-05-22T15:18:54.018Z,101395.73
2019-05-22T15:21:24.712Z,101394.62
2019-05-22T15:23:55.037Z,101398.58
2019-05-22T15:26:25.274Z,101398.17
2019-05-22T15:28:55.430Z,101389.85
2019-05-22T15:31:25.458Z,101393.55
2019-05-22T15:33:56.096Z,101389.05
2019-05-22T15:36:27.023Z,101386.70
2019-05-22T15:38:57.864Z,101393.23
2019-05-22T15:41:28.495Z,101380.74
2019-05-22T15:43:59.535Z,101378.06
2019-05-22T15:46:32.725Z,101379.98
2019-05-22T15:49:05.833Z,101379.34
2019-05-22T15:51:37.223Z,101370.47
2019-05-22T15:54:08.697Z,101379.80
2019-05-22T15:56:40.046Z,101382.75
2019-05-22T15:59:12.014Z,101375.18
2019-05-22T16:01:42.842Z,101378.53
2019-05-22T16:04:14.841Z,101373.82
2019-05-22T16:06:48.078Z,101379.03
2019-05-22T16:09:18.969Z,101378.04
2019-05-22T16:11:51.958Z,101370.84
2019-05-22T16:14:22.977Z,101372.84
2019-05-22T16:16:53.955Z,101379.40
2019-05-22T16:19:27.354Z,101364.20
2019-05-22T16:22:01.841Z,101369.09
2019-05-22T16:24:32.206Z,101367.28
2019-05-22T16:27:02.380Z,101357.05
2019-05-22T16:29:32.912Z,101367.44
2019-05-22T16:32:05.946Z,101363.83
2019-05-22T16:34:37.467Z,101366.19
2019-05-22T16:37:07.903Z,101364.34
2019-05-22T16:39:40.086Z,101362.81
2019-05-22T16:42:10.625Z,101365.16
2019-05-22T16:44:41.486Z,101366.16
2019-05-22T16:47:12.858Z,101355.16
2019-05-22T16:49:43.107Z,101364.91
2019-05-22T16:52:15.437Z,101362.27
2019-05-22T16:54:47.035Z,101369.02
2019-05-22T16:57:17.764Z,101360.14
2019-05-22T16:59:47.813Z,101360.68
2019-05-22T17:02:18.930Z,101358.34
2019-05-22T17:04:50.490Z,101352.98
2019-05-22T17:07:21.210Z,101356.33
2019-05-22T17:09:53.548Z,101349.63
2019-05-22T17:12:25.579Z,101356.66
2019-05-22T17:14:55.668Z,101353.28
2019-05-22T17:17:27.093Z,101349.96
2019-05-22T17:19:57.427Z,101349.42
2019-05-22T17:22:27.982Z,101349.75
2019-05-22T17:24:58.549Z,101353.14
2019-05-22T17:27:29.899Z,101357.00
2019-05-22T17:30:00.538Z,101353.98
2019-05-22T17:32:31.358Z,101353.98
2019-05-22T17:35:01.895Z,101362.02
2019-05-22T17:37:33.692Z,101361.70
2019-05-22T17:40:06.178Z,101355.52
2019-05-22T17:42:37.172Z,101364.05
2019-05-22T17:45:08.433Z,101362.36
2019-05-22T17:47:38.390Z,101354.36
2019-05-22T17:50:25.202Z,101358.03
2019-05-22T17:52:40.968Z,101360.03
2019-05-22T17:55:12.808Z,101352.66
2019-05-22T17:57:43.507Z,101353.02
2019-05-22T18:00:24.765Z,101356.19
2019-05-22T18:02:54.854Z,101358.51
2019-05-22T18:05:26.078Z,101353.14
2019-05-22T18:07:56.549Z,101352.33
2019-05-22T18:10:27.242Z,101350.60
2019-05-22T18:12:57.466Z,101350.59
2019-05-22T18:15:27.699Z,101351.94
2019-05-22T18:17:58.138Z,101348.57
2019-05-22T18:20:41.754Z,101356.90
2019-05-22T18:23:01.292Z,101349.37
2019-05-22T18:25:32.235Z,101346.84
2019-05-22T18:28:05.051Z,101345.80
2019-05-22T18:30:37.969Z,101351.48
2019-05-22T18:33:08.031Z,101346.77
2019-05-22T18:35:38.061Z,101341.70
2019-05-22T18:38:08.107Z,101352.41
2019-05-22T18:40:38.719Z,101340.16
2019-05-22T18:43:09.213Z,101343.80
2019-05-22T18:45:39.995Z,101342.63
2019-05-22T18:48:10.241Z,101348.91
2019-05-22T18:50:40.362Z,101349.22
2019-05-22T18:53:10.318Z,101342.97
2019-05-22T18:55:40.815Z,101346.29
2019-05-22T18:58:10.839Z,101350.91
2019-05-22T19:00:40.831Z,101351.03
2019-05-22T19:03:10.970Z,101352.33
2019-05-22T19:05:41.568Z,101354.61
2019-05-22T19:08:12.453Z,101354.58
2019-05-22T19:10:42.598Z,101348.73
2019-05-22T19:13:14.624Z,101352.20
2019-05-22T19:15:45.094Z,101349.83
2019-05-22T19:18:15.351Z,101351.81
2019-05-22T19:20:45.469Z,101357.14
2019-05-22T19:23:15.593Z,101358.14
2019-05-22T19:25:45.538Z,101351.95
2019-05-22T19:28:16.136Z,101346.13
2019-05-22T19:30:46.075Z,101346.96
2019-05-22T19:33:15.989Z,101350.78
2019-05-22T19:35:45.843Z,101355.81
2019-05-22T19:38:16.155Z,101359.13
2019-05-22T19:40:46.530Z,101361.75
2019-05-22T19:43:17.127Z,101365.76
2019-05-22T19:45:47.483Z,101363.09
2019-05-22T19:48:18.112Z,101361.41
2019-05-22T19:50:48.974Z,101366.75
2019-05-22T19:53:20.066Z,101367.73
2019-05-22T19:55:50.510Z,101377.08
2019-05-22T19:58:21.998Z,101373.42
2019-05-22T20:00:52.596Z,101374.41
2019-05-22T20:03:25.384Z,101370.90
2019-05-22T20:05:55.428Z,101374.56
2019-05-22T20:08:26.267Z,101376.23
2019-05-22T20:10:56.416Z,101384.25
2019-05-22T20:13:26.666Z,101384.05
2019-05-22T20:15:57.560Z,101389.05
2019-05-22T20:18:27.485Z,101391.52
2019-05-22T20:20:57.853Z,101387.99
2019-05-22T20:23:36.203Z,101390.61
2019-05-22T20:26:01.021Z,101383.86
2019-05-22T20:28:31.209Z,101388.98
2019-05-22T20:31:01.273Z,101389.28
2019-05-22T20:33:31.891Z,101387.05
2019-05-22T20:36:02.157Z,101391.53
2019-05-22T20:38:32.379Z,101389.45
2019-05-22T20:41:02.264Z,101387.56
2019-05-22T20:43:33.944Z,101385.19
2019-05-22T20:46:05.836Z,101387.52
2019-05-22T20:48:37.255Z,101390.85
2019-05-22T20:51:09.700Z,101388.13
2019-05-22T20:53:53.577Z,101395.58
2019-05-22T20:56:13.866Z,101392.52
2019-05-22T20:58:44.769Z,101395.84
2019-05-22T21:01:15.117Z,101395.64
2019-05-22T21:03:45.222Z,101398.25
2019-05-22T21:06:17.021Z,101389.21
2019-05-22T21:08:47.259Z,101392.52
2019-05-22T21:11:20.825Z,101391.81
2019-05-22T21:13:51.255Z,101397.12
2019-05-22T21:16:21.807Z,101399.87
2019-05-22T21:18:54.480Z,101396.13
2019-05-22T21:21:26.085Z,101402.03
2019-05-22T21:24:09.569Z,101405.27
2019-05-22T21:26:28.651Z,101400.73
2019-05-22T21:28:58.652Z,101402.33
2019-05-22T21:31:28.814Z,101397.28
2019-05-22T21:33:58.753Z,101397.56
2019-05-22T21:36:29.372Z,101404.16
2019-05-22T21:39:00.090Z,101407.66
2019-05-22T21:41:30.854Z,101403.31
2019-05-22T21:44:01.021Z,101406.47
2019-05-22T21:46:31.268Z,101401.14
2019-05-22T21:49:01.580Z,101403.48
2019-05-22T21:51:31.455Z,101403.77
2019-05-22T21:54:01.705Z,101409.72
2019-05-22T21:56:31.649Z,101406.99
2019-05-22T21:59:01.584Z,101404.61
2019-05-22T22:01:35.844Z,101406.08
2019-05-22T22:04:20.935Z,101406.25
2019-05-22T22:06:53.742Z,101405.69
2019-05-22T22:09:25.785Z,101405.48
2019-05-22T22:11:57.047Z,101408.42
2019-05-22T22:14:27.413Z,101413.32
2019-05-22T22:16:57.633Z,101416.43
2019-05-22T22:19:30.311Z,101422.88
2019-05-22T22:22:00.760Z,101416.98
2019-05-22T22:24:31.771Z,101416.41
2019-05-22T22:27:02.217Z,101422.05
2019-05-22T22:29:32.984Z,101415.88
2019-05-22T22:32:04.869Z,101416.37
2019-05-22T22:34:53.883Z,101419.94
2019-05-22T22:37:24.706Z,101421.89
2019-05-22T22:39:56.606Z,101417.05
2019-05-22T22:42:29.493Z,101417.41
2019-05-22T22:44:59.814Z,101418.52
2019-05-22T22:47:41.512Z,101419.98
2019-05-22T22:50:12.915Z,101421.90
2019-05-22T22:52:44.993Z,101419.73
2019-05-22T22:55:17.369Z,101428.06
2019-05-22T22:57:49.518Z,101428.41
2019-05-22T23:00:26.844Z,101425.75
2019-05-22T23:02:59.148Z,101433.38
2019-05-22T23:05:29.091Z,101431.34
2019-05-22T23:08:00.224Z,101433.79
2019-05-22T23:10:31.275Z,101432.24
2019-05-22T23:13:01.563Z,101424.89
2019-05-22T23:15:31.655Z,101425.86
2019-05-22T23:18:03.422Z,101425.51
2019-05-22T23:20:31.928Z,101416.02
2019-05-22T23:23:00.494Z,101418.81
2019-05-22T23:25:32.611Z,101418.38
2019-05-22T23:28:04.644Z,101414.92
2019-05-22T23:30:34.960Z,101417.58
2019-05-22T23:33:07.006Z,101412.78
2019-05-22T23:35:37.333Z,101415.77
2019-05-22T23:38:08.867Z,101415.22
2019-05-22T23:40:38.896Z,101421.40
2019-05-22T23:43:10.028Z,101416.48
2019-05-22T23:45:40.618Z,101413.95
2019-05-22T23:48:14.254Z,101418.92
2019-05-22T23:50:44.490Z,101422.07
2019-05-22T23:53:53.188Z,101420.55
2019-05-22T23:56:25.719Z,101413.33
2019-05-22T23:58:58.379Z,101420.24
